Ole-arvid Nergaard — LLAY — position and weather

sailwx.info

Track history (hours):
 
Tides and Currents Weather Stations Pressure Air Temp Water Temp Dewpoint Dewpoint Depression Visibility Wind Speed Wind Dir Waves Ship Positions

Ole-arvid Nergaard

Last reported at 2018-Feb-09 01:00 UTC. Time now 2018-Feb-23 10:43 UTC.
Position N 62°27' E 005°15'.
Warning: this ship's position is 14 days out of date.

Length 55 m; draft 7.2 m.

Type: Fishing. MMSI: 259656000.

Date/timePositionNaut miles runAvg speedWind from/ knotsBaromVisibWave heightAir tempDewpointWater temp
2018-Feb-09 01:00N 62°27' E 005°15'2010.0
2018-Feb-08 23:00N 62°26' E 005°58'5 3.2
2018-Feb-08 21:30N 62°28' E 006°08'2 1.6
2018-Feb-08 20:30N 62°29' E 006°04'2 4.5
2018-Feb-08 20:00N 62°30' E 006°09'2311.5
2018-Feb-08 18:00N 62°49' E 006°38'612.1
2018-Feb-08 17:30N 62°54' E 006°45'1111.5
2018-Feb-08 16:30N 63°01' E 007°05'611.9
2018-Feb-08 16:00N 63°03' E 007°17'611.6
2018-Feb-08 15:30N 63°05' E 007°29'611.7
2018-Feb-08 15:00N 63°09' E 007°40'5410.7
2018-Feb-08 10:00N 63°41' E 009°14'1711.3
2018-Feb-08 08:30N 63°57' E 009°26'205 8.9
2018-Feb-07 09:30N 66°56' E 013°29'612.3
2018-Feb-07 09:00N 67°02' E 013°28'612.0
2018-Feb-07 08:30N 67°08' E 013°24'611.6
2018-Feb-07 07:59N 67°14' E 013°20'510.8
2018-Feb-07 07:30N 67°19' E 013°22'612.0
2018-Feb-07 07:00N 67°24' E 013°31'612.0
2018-Feb-07 06:30N 67°29' E 013°40'612.2
2018-Feb-07 06:00N 67°33' E 013°49'612.5
2018-Feb-07 05:30N 67°39' E 013°59'612.4
2018-Feb-07 05:00N 67°44' E 014°08'612.1
2018-Feb-07 04:30N 67°49' E 014°18'611.5
2018-Feb-07 04:00N 67°53' E 014°28'611.7
2018-Feb-07 03:29N 67°57' E 014°40'611.9
2018-Feb-07 02:59N 68°01' E 014°52'611.5
2018-Feb-07 02:30N 68°04' E 015°03'611.4
2018-Feb-07 02:00N 68°08' E 015°16'611.8
2018-Feb-07 01:29N 68°11' E 015°29'611.6
2018-Feb-07 01:00N 68°14' E 015°42'611.3
2018-Feb-07 00:30N 68°18' E 015°53'611.3
2018-Feb-06 23:59N 68°23' E 016°01'611.7
2018-Feb-06 23:30N 68°28' E 016°06'611.6
2018-Feb-06 23:00N 68°33' E 016°15'611.3
2018-Feb-06 22:30N 68°34' E 016°31'510.6
2018-Feb-06 22:00N 68°39' E 016°36'611.4
2018-Feb-06 21:30N 68°44' E 016°43'5 9.5
2018-Feb-06 21:00N 68°48' E 016°37'1 2.0
2018-Feb-06 20:30N 68°48' E 016°34'0 0.0
2018-Feb-06 19:30N 68°48' E 016°34'0 0.0
2018-Feb-06 18:58N 68°48' E 016°34'1 0.4
2018-Feb-06 17:00N 68°47' E 016°33'0 0.0
2018-Feb-06 16:30N 68°47' E 016°33'0 0.0
2018-Feb-06 16:00N 68°47' E 016°33'0 0.0
2018-Feb-06 15:30N 68°47' E 016°33'0 0.0
2018-Feb-06 15:00N 68°47' E 016°33'0 0.0
2018-Feb-06 14:29N 68°47' E 016°33'0 0.0
2018-Feb-06 13:59N 68°47' E 016°33'0 0.0
2018-Feb-06 13:30N 68°47' E 016°33'0 0.0
2018-Feb-06 13:00N 68°47' E 016°33'0 0.0
2018-Feb-06 12:00N 68°47' E 016°33'0 0.0
2018-Feb-06 10:59N 68°47' E 016°33'0 0.0
2018-Feb-06 10:29N 68°47' E 016°33'0 0.0
2018-Feb-06 09:59N 68°47' E 016°33'0 0.0
2018-Feb-06 09:29N 68°47' E 016°33'0 0.0
2018-Feb-06 08:30N 68°47' E 016°33'0 0.0
2018-Feb-06 07:30N 68°47' E 016°33'0 0.0
2018-Feb-06 07:00N 68°47' E 016°33'0 0.0
2018-Feb-06 06:30N 68°47' E 016°33'0 0.0
2018-Feb-06 06:00N 68°47' E 016°33'0 0.0
2018-Feb-06 05:30N 68°47' E 016°33'0 0.0
2018-Feb-06 05:00N 68°47' E 016°33'0 0.0
2018-Feb-06 04:30N 68°47' E 016°33'0 0.0
2018-Feb-06 03:59N 68°47' E 016°33'0 0.0
2018-Feb-06 03:30N 68°47' E 016°33'0 0.0
2018-Feb-06 03:00N 68°47' E 016°33'0 0.0
2018-Feb-06 02:30N 68°47' E 016°33'0 0.0
2018-Feb-06 02:00N 68°47' E 016°33'0 0.0
2018-Feb-06 01:30N 68°47' E 016°33'0 0.0
2018-Feb-06 01:00N 68°47' E 016°33'2 3.1
2018-Feb-06 00:30N 68°49' E 016°34'510.4
2018-Feb-06 00:00N 68°52' E 016°45'1610.8
2018-Feb-05 22:30N 69°08' E 016°43'510.9
2018-Feb-05 22:00N 69°13' E 016°41'510.7
2018-Feb-05 21:30N 69°19' E 016°39'1010.4
2018-Feb-05 20:30N 69°28' E 016°50'510.0
2018-Feb-05 20:00N 69°32' E 017°01'4 7.8
2018-Feb-05 19:30N 69°34' E 017°10'1 1.7
2018-Feb-05 19:00N 69°34' E 017°12'6 6.0
2018-Feb-05 18:00N 69°32' E 017°29'2 4.6
2018-Feb-05 17:30N 69°30' E 017°29'0 0.0
2018-Feb-05 17:00N 69°30' E 017°29'0 0.0
2018-Feb-05 16:30N 69°30' E 017°29'0 0.0
2018-Feb-05 16:00N 69°30' E 017°29'0 0.0
2018-Feb-05 15:30N 69°30' E 017°29'0 0.0
2018-Feb-05 14:59N 69°30' E 017°29'0 0.0
2018-Feb-05 14:30N 69°30' E 017°29'0 0.0
2018-Feb-05 12:59N 69°30' E 017°29'0 0.0
2018-Feb-05 12:30N 69°30' E 017°29'0 0.0
2018-Feb-05 12:00N 69°30' E 017°29'0 0.0
2018-Feb-05 11:30N 69°30' E 017°29'0 0.0
2018-Feb-05 11:00N 69°30' E 017°29'0 0.0
2018-Feb-05 10:30N 69°30' E 017°29'0 0.0
2018-Feb-05 10:00N 69°30' E 017°29'0 0.0
2018-Feb-05 09:30N 69°30' E 017°29'0 0.0
2018-Feb-05 08:59N 69°30' E 017°29'0 0.0
2018-Feb-05 08:29N 69°30' E 017°29'0 0.0
2018-Feb-05 08:01N 69°30' E 017°29'0 0.0
2018-Feb-05 07:30N 69°30' E 017°29'0 0.0
2018-Feb-05 07:00N 69°30' E 017°29'0 0.0
2018-Feb-05 06:31N 69°30' E 017°29'0 0.0
2018-Feb-05 05:30N 69°30' E 017°29'0 0.0
2018-Feb-05 05:00N 69°30' E 017°29'0 0.0
2018-Feb-05 04:30N 69°30' E 017°29'3 5.6
2018-Feb-05 04:00N 69°32' E 017°28'5 9.8
2018-Feb-05 03:30N 69°37' E 017°28'5 9.8
2018-Feb-05 03:00N 69°40' E 017°40'510.8
2018-Feb-05 02:30N 69°37' E 017°52'612.8
2018-Feb-05 02:00N 69°32' E 018°04'611.7
2018-Feb-05 01:30N 69°31' E 018°21'611.6
2018-Feb-05 01:00N 69°33' E 018°37'4 7.9
2018-Feb-05 00:30N 69°34' E 018°48'510.8
2018-Feb-05 00:01N 69°38' E 018°57'1 2.7
2018-Feb-04 23:31N 69°40' E 018°58'0 0.0
2018-Feb-04 23:01N 69°40' E 018°58'0 0.0
2018-Feb-04 22:30N 69°40' E 018°58'0 0.0
2018-Feb-04 22:00N 69°40' E 018°58'0 0.0
2018-Feb-04 21:30N 69°40' E 018°58'0 0.0
2018-Feb-04 21:00N 69°40' E 018°58'0 0.0
2018-Feb-04 20:00N 69°40' E 018°58'0 0.0
2018-Feb-04 19:30N 69°40' E 018°58'0 0.0
2018-Feb-04 19:00N 69°40' E 018°58'0 0.0
2018-Feb-04 18:31N 69°40' E 018°58'2 3.5
2018-Feb-04 18:00N 69°41' E 019°01'3 5.5
2018-Feb-04 17:30N 69°44' E 019°03'8 4.0
2018-Feb-04 15:30N 69°49' E 019°21'4 8.4
2018-Feb-04 15:01N 69°52' E 019°26'4 7.9
2018-Feb-04 14:30N 69°56' E 019°32'3 7.0
2018-Feb-04 14:01N 69°58' E 019°40'3 6.6
2018-Feb-04 13:30N 70°01' E 019°41'3 6.9
2018-Feb-04 13:00N 70°05' E 019°38'3 7.2
2018-Feb-04 12:31N 70°08' E 019°35'4 8.2
2018-Feb-04 12:00N 70°12' E 019°29'3 6.2
2018-Feb-04 11:30N 70°15' E 019°28'5 3.5
2018-Feb-04 10:00N 70°20' E 019°23'4 3.5
2018-Feb-04 09:00N 70°22' E 019°15'2 4.2
2018-Feb-04 08:30N 70°23' E 019°10'2 4.2
2018-Feb-04 08:01N 70°24' E 019°04'2 4.4
2018-Feb-04 07:30N 70°26' E 018°59'2 4.5
2018-Feb-04 07:00N 70°27' E 018°54'3 6.0
2018-Feb-04 06:30N 70°29' E 018°46'3 6.3
2018-Feb-04 06:00N 70°30' E 018°38'31 0.8
2018-Feb-02 13:50N 70°46' E 017°17'1 3.7
2018-Feb-02 13:31N 70°45' E 017°17'2 3.8
2018-Feb-02 13:00N 70°43' E 017°16'2 3.6
2018-Feb-02 12:31N 70°41' E 017°16'2 5.0
2018-Feb-02 12:01N 70°44' E 017°16'611.6
2018-Feb-02 11:31N 70°50' E 017°14'611.2
2018-Feb-02 11:00N 70°55' E 017°16'510.7
2018-Feb-02 10:30N 71°01' E 017°12'510.9
2018-Feb-02 10:00N 71°06' E 017°08'1 2.7
2018-Feb-02 09:30N 71°07' E 017°06'1 2.7
2018-Feb-02 09:00N 71°08' E 017°03'2 3.4
2018-Feb-02 08:30N 71°09' E 017°00'2 3.6
2018-Feb-02 08:01N 71°11' E 017°01'2 3.8
2018-Feb-02 07:31N 71°13' E 017°04'1 2.9
2018-Feb-02 07:01N 71°12' E 017°07'2 3.3
2018-Feb-02 06:31N 71°10' E 017°04'2 3.4
2018-Feb-02 06:00N 71°08' E 017°04'2 3.2
2018-Feb-02 05:31N 71°07' E 017°04'2 3.3
2018-Feb-02 05:01N 71°05' E 017°06'2 3.5
2018-Feb-02 04:30N 71°04' E 017°07'2 3.4
2018-Feb-02 04:01N 71°02' E 017°07'2 3.3
2018-Feb-02 03:30N 71°00' E 017°07'2 3.7
2018-Feb-02 03:01N 70°59' E 017°10'0 0.8
2018-Feb-02 02:31N 70°59' E 017°11'611.1
2018-Feb-02 02:01N 71°04' E 017°07'611.3
2018-Feb-02 01:31N 71°10' E 017°03'510.9
2018-Feb-02 01:00N 71°15' E 016°57'6 0.4
2018-Feb-01 11:00N 71°20' E 016°49'2 3.8
2018-Feb-01 10:30N 71°18' E 016°51'2 4.0
2018-Feb-01 10:00N 71°16' E 016°54'1 2.9
2018-Feb-01 09:31N 71°15' E 016°55'1 1.8
2018-Feb-01 09:00N 71°16' E 016°54'1 2.7
2018-Feb-01 08:30N 71°17' E 016°52'  
Track history (hours):
 
Tides and Currents Weather Stations Pressure Air Temp Water Temp Dewpoint Dewpoint Depression Visibility Wind Speed Wind Dir Waves Ship Positions

Ole-arvid Nergaard

Last reported at 2018-Feb-09 01:00 UTC. Time now 2018-Feb-23 10:43 UTC.
Position N 62°27' E 005°15'.
Warning: this ship's position is 14 days out of date.

Length 55 m; draft 7.2 m.

Type: Fishing. MMSI: 259656000.

Date/timePositionNaut miles runAvg speedWind from/ knotsBaromVisibWave heightAir tempDewpointWater temp
2018-Feb-09 01:00N 62°27' E 005°15'2010.0
2018-Feb-08 23:00N 62°26' E 005°58'5 3.2
2018-Feb-08 21:30N 62°28' E 006°08'2 1.6
2018-Feb-08 20:30N 62°29' E 006°04'2 4.5
2018-Feb-08 20:00N 62°30' E 006°09'2311.5
2018-Feb-08 18:00N 62°49' E 006°38'612.1
2018-Feb-08 17:30N 62°54' E 006°45'1111.5
2018-Feb-08 16:30N 63°01' E 007°05'611.9
2018-Feb-08 16:00N 63°03' E 007°17'611.6
2018-Feb-08 15:30N 63°05' E 007°29'611.7
2018-Feb-08 15:00N 63°09' E 007°40'5410.7
2018-Feb-08 10:00N 63°41' E 009°14'1711.3
2018-Feb-08 08:30N 63°57' E 009°26'205 8.9
2018-Feb-07 09:30N 66°56' E 013°29'612.3
2018-Feb-07 09:00N 67°02' E 013°28'612.0
2018-Feb-07 08:30N 67°08' E 013°24'611.6
2018-Feb-07 07:59N 67°14' E 013°20'510.8
2018-Feb-07 07:30N 67°19' E 013°22'612.0
2018-Feb-07 07:00N 67°24' E 013°31'612.0
2018-Feb-07 06:30N 67°29' E 013°40'612.2
2018-Feb-07 06:00N 67°33' E 013°49'612.5
2018-Feb-07 05:30N 67°39' E 013°59'612.4
2018-Feb-07 05:00N 67°44' E 014°08'612.1
2018-Feb-07 04:30N 67°49' E 014°18'611.5
2018-Feb-07 04:00N 67°53' E 014°28'611.7
2018-Feb-07 03:29N 67°57' E 014°40'611.9
2018-Feb-07 02:59N 68°01' E 014°52'611.5
2018-Feb-07 02:30N 68°04' E 015°03'611.4
2018-Feb-07 02:00N 68°08' E 015°16'611.8
2018-Feb-07 01:29N 68°11' E 015°29'611.6
2018-Feb-07 01:00N 68°14' E 015°42'611.3
2018-Feb-07 00:30N 68°18' E 015°53'611.3
2018-Feb-06 23:59N 68°23' E 016°01'611.7
2018-Feb-06 23:30N 68°28' E 016°06'611.6
2018-Feb-06 23:00N 68°33' E 016°15'611.3
2018-Feb-06 22:30N 68°34' E 016°31'510.6
2018-Feb-06 22:00N 68°39' E 016°36'611.4
2018-Feb-06 21:30N 68°44' E 016°43'5 9.5
2018-Feb-06 21:00N 68°48' E 016°37'1 2.0
2018-Feb-06 20:30N 68°48' E 016°34'0 0.0
2018-Feb-06 19:30N 68°48' E 016°34'0 0.0
2018-Feb-06 18:58N 68°48' E 016°34'1 0.4
2018-Feb-06 17:00N 68°47' E 016°33'0 0.0
2018-Feb-06 16:30N 68°47' E 016°33'0 0.0
2018-Feb-06 16:00N 68°47' E 016°33'0 0.0
2018-Feb-06 15:30N 68°47' E 016°33'0 0.0
2018-Feb-06 15:00N 68°47' E 016°33'0 0.0
2018-Feb-06 14:29N 68°47' E 016°33'0 0.0
2018-Feb-06 13:59N 68°47' E 016°33'0 0.0
2018-Feb-06 13:30N 68°47' E 016°33'0 0.0
2018-Feb-06 13:00N 68°47' E 016°33'0 0.0
2018-Feb-06 12:00N 68°47' E 016°33'0 0.0
2018-Feb-06 10:59N 68°47' E 016°33'0 0.0
2018-Feb-06 10:29N 68°47' E 016°33'0 0.0
2018-Feb-06 09:59N 68°47' E 016°33'0 0.0
2018-Feb-06 09:29N 68°47' E 016°33'0 0.0
2018-Feb-06 08:30N 68°47' E 016°33'0 0.0
2018-Feb-06 07:30N 68°47' E 016°33'0 0.0
2018-Feb-06 07:00N 68°47' E 016°33'0 0.0
2018-Feb-06 06:30N 68°47' E 016°33'0 0.0
2018-Feb-06 06:00N 68°47' E 016°33'0 0.0
2018-Feb-06 05:30N 68°47' E 016°33'0 0.0
2018-Feb-06 05:00N 68°47' E 016°33'0 0.0
2018-Feb-06 04:30N 68°47' E 016°33'0 0.0
2018-Feb-06 03:59N 68°47' E 016°33'0 0.0
2018-Feb-06 03:30N 68°47' E 016°33'0 0.0
2018-Feb-06 03:00N 68°47' E 016°33'0 0.0
2018-Feb-06 02:30N 68°47' E 016°33'0 0.0
2018-Feb-06 02:00N 68°47' E 016°33'0 0.0
2018-Feb-06 01:30N 68°47' E 016°33'0 0.0
2018-Feb-06 01:00N 68°47' E 016°33'2 3.1
2018-Feb-06 00:30N 68°49' E 016°34'510.4
2018-Feb-06 00:00N 68°52' E 016°45'1610.8
2018-Feb-05 22:30N 69°08' E 016°43'510.9
2018-Feb-05 22:00N 69°13' E 016°41'510.7
2018-Feb-05 21:30N 69°19' E 016°39'1010.4
2018-Feb-05 20:30N 69°28' E 016°50'510.0
2018-Feb-05 20:00N 69°32' E 017°01'4 7.8
2018-Feb-05 19:30N 69°34' E 017°10'1 1.7
2018-Feb-05 19:00N 69°34' E 017°12'6 6.0
2018-Feb-05 18:00N 69°32' E 017°29'2 4.6
2018-Feb-05 17:30N 69°30' E 017°29'0 0.0
2018-Feb-05 17:00N 69°30' E 017°29'0 0.0
2018-Feb-05 16:30N 69°30' E 017°29'0 0.0
2018-Feb-05 16:00N 69°30' E 017°29'0 0.0
2018-Feb-05 15:30N 69°30' E 017°29'0 0.0
2018-Feb-05 14:59N 69°30' E 017°29'0 0.0
2018-Feb-05 14:30N 69°30' E 017°29'0 0.0
2018-Feb-05 12:59N 69°30' E 017°29'0 0.0
2018-Feb-05 12:30N 69°30' E 017°29'0 0.0
2018-Feb-05 12:00N 69°30' E 017°29'0 0.0
2018-Feb-05 11:30N 69°30' E 017°29'0 0.0
2018-Feb-05 11:00N 69°30' E 017°29'0 0.0
2018-Feb-05 10:30N 69°30' E 017°29'0 0.0
2018-Feb-05 10:00N 69°30' E 017°29'0 0.0
2018-Feb-05 09:30N 69°30' E 017°29'0 0.0
2018-Feb-05 08:59N 69°30' E 017°29'0 0.0
2018-Feb-05 08:29N 69°30' E 017°29'0 0.0
2018-Feb-05 08:01N 69°30' E 017°29'0 0.0
2018-Feb-05 07:30N 69°30' E 017°29'0 0.0
2018-Feb-05 07:00N 69°30' E 017°29'0 0.0
2018-Feb-05 06:31N 69°30' E 017°29'0 0.0
2018-Feb-05 05:30N 69°30' E 017°29'0 0.0
2018-Feb-05 05:00N 69°30' E 017°29'0 0.0
2018-Feb-05 04:30N 69°30' E 017°29'3 5.6
2018-Feb-05 04:00N 69°32' E 017°28'5 9.8
2018-Feb-05 03:30N 69°37' E 017°28'5 9.8
2018-Feb-05 03:00N 69°40' E 017°40'510.8
2018-Feb-05 02:30N 69°37' E 017°52'612.8
2018-Feb-05 02:00N 69°32' E 018°04'611.7
2018-Feb-05 01:30N 69°31' E 018°21'611.6
2018-Feb-05 01:00N 69°33' E 018°37'4 7.9
2018-Feb-05 00:30N 69°34' E 018°48'510.8
2018-Feb-05 00:01N 69°38' E 018°57'1 2.7
2018-Feb-04 23:31N 69°40' E 018°58'0 0.0
2018-Feb-04 23:01N 69°40' E 018°58'0 0.0
2018-Feb-04 22:30N 69°40' E 018°58'0 0.0
2018-Feb-04 22:00N 69°40' E 018°58'0 0.0
2018-Feb-04 21:30N 69°40' E 018°58'0 0.0
2018-Feb-04 21:00N 69°40' E 018°58'0 0.0
2018-Feb-04 20:00N 69°40' E 018°58'0 0.0
2018-Feb-04 19:30N 69°40' E 018°58'0 0.0
2018-Feb-04 19:00N 69°40' E 018°58'0 0.0
2018-Feb-04 18:31N 69°40' E 018°58'2 3.5
2018-Feb-04 18:00N 69°41' E 019°01'3 5.5
2018-Feb-04 17:30N 69°44' E 019°03'8 4.0
2018-Feb-04 15:30N 69°49' E 019°21'4 8.4
2018-Feb-04 15:01N 69°52' E 019°26'4 7.9
2018-Feb-04 14:30N 69°56' E 019°32'3 7.0
2018-Feb-04 14:01N 69°58' E 019°40'3 6.6
2018-Feb-04 13:30N 70°01' E 019°41'3 6.9
2018-Feb-04 13:00N 70°05' E 019°38'3 7.2
2018-Feb-04 12:31N 70°08' E 019°35'4 8.2
2018-Feb-04 12:00N 70°12' E 019°29'3 6.2
2018-Feb-04 11:30N 70°15' E 019°28'5 3.5
2018-Feb-04 10:00N 70°20' E 019°23'4 3.5
2018-Feb-04 09:00N 70°22' E 019°15'2 4.2
2018-Feb-04 08:30N 70°23' E 019°10'2 4.2
2018-Feb-04 08:01N 70°24' E 019°04'2 4.4
2018-Feb-04 07:30N 70°26' E 018°59'2 4.5
2018-Feb-04 07:00N 70°27' E 018°54'3 6.0
2018-Feb-04 06:30N 70°29' E 018°46'3 6.3
2018-Feb-04 06:00N 70°30' E 018°38'31 0.8
2018-Feb-02 13:50N 70°46' E 017°17'1 3.7
2018-Feb-02 13:31N 70°45' E 017°17'2 3.8
2018-Feb-02 13:00N 70°43' E 017°16'2 3.6
2018-Feb-02 12:31N 70°41' E 017°16'2 5.0
2018-Feb-02 12:01N 70°44' E 017°16'611.6
2018-Feb-02 11:31N 70°50' E 017°14'611.2
2018-Feb-02 11:00N 70°55' E 017°16'510.7
2018-Feb-02 10:30N 71°01' E 017°12'510.9
2018-Feb-02 10:00N 71°06' E 017°08'1 2.7
2018-Feb-02 09:30N 71°07' E 017°06'1 2.7
2018-Feb-02 09:00N 71°08' E 017°03'2 3.4
2018-Feb-02 08:30N 71°09' E 017°00'2 3.6
2018-Feb-02 08:01N 71°11' E 017°01'2 3.8
2018-Feb-02 07:31N 71°13' E 017°04'1 2.9
2018-Feb-02 07:01N 71°12' E 017°07'2 3.3
2018-Feb-02 06:31N 71°10' E 017°04'2 3.4
2018-Feb-02 06:00N 71°08' E 017°04'2 3.2
2018-Feb-02 05:31N 71°07' E 017°04'2 3.3
2018-Feb-02 05:01N 71°05' E 017°06'2 3.5
2018-Feb-02 04:30N 71°04' E 017°07'2 3.4
2018-Feb-02 04:01N 71°02' E 017°07'2 3.3
2018-Feb-02 03:30N 71°00' E 017°07'2 3.7
2018-Feb-02 03:01N 70°59' E 017°10'0 0.8
2018-Feb-02 02:31N 70°59' E 017°11'611.1
2018-Feb-02 02:01N 71°04' E 017°07'611.3
2018-Feb-02 01:31N 71°10' E 017°03'510.9
2018-Feb-02 01:00N 71°15' E 016°57'6 0.4
2018-Feb-01 11:00N 71°20' E 016°49'2 3.8
2018-Feb-01 10:30N 71°18' E 016°51'2 4.0
2018-Feb-01 10:00N 71°16' E 016°54'1 2.9
2018-Feb-01 09:31N 71°15' E 016°55'1 1.8
2018-Feb-01 09:00N 71°16' E 016°54'1 2.7
2018-Feb-01 08:30N 71°17' E 016°52'  

Dump ship's entire track history